Saga Sapphire — 9HOF8 — position and weather

sailwx.info

Track history (hours):
 
Tides and Currents Weather Stations Pressure Air Temp Water Temp Dewpoint Dewpoint Depression Visibility Wind Speed Wind Dir Waves Ship Positions

Saga Sapphire

Last reported at 2018-May-23 22:30 UTC. Time now 2018-May-23 22:32 UTC.
Position N 60°54' E 004°40'.

Length 200 m; draft 8.4 m.

Type: Ship. MMSI: 256208000.

Date/timePositionNaut miles runAvg speedWind from/ knotsBaromVisibWave heightAir tempDewpointWater temp
2018-May-23 22:30N 60°54' E 004°40'713.8
2018-May-23 22:00N 60°60' E 004°48'714.5
2018-May-23 21:30N 61°04' E 004°60'713.8
2018-May-23 21:00N 61°05' E 005°13'713.8
2018-May-23 20:29N 61°04' E 005°28'714.5
2018-May-23 20:00N 61°07' E 005°42'714.3
2018-May-23 19:30N 61°08' E 005°56'714.0
2018-May-23 18:59N 61°08' E 006°11'713.3
2018-May-23 18:30N 61°06' E 006°24'612.1
2018-May-23 17:59N 61°10' E 006°34'511.2
2018-May-23 17:30N 61°15' E 006°36'3 1.5
2018-May-23 15:11N 61°18' E 006°40'210.9
2018-May-23 14:59N 61°16' E 006°38'510.5
2018-May-23 14:30N 61°11' E 006°35'611.7
2018-May-23 14:00N 61°06' E 006°27'713.6
2018-May-23 13:30N 61°07' E 006°14'713.5
2018-May-23 13:00N 61°08' E 006°00'713.5
2018-May-23 12:30N 61°08' E 005°46'713.8
2018-May-23 12:00N 61°05' E 005°33'712.9
2018-May-23 11:29N 61°05' E 005°19'713.1
2018-May-23 10:59N 61°05' E 005°06'713.9
2018-May-23 10:30N 61°02' E 004°53'713.7
2018-May-23 10:00N 60°58' E 004°42'612.2
2018-May-23 09:29N 60°52' E 004°37'510.6
2018-May-23 09:00N 60°48' E 004°30'612.6
2018-May-23 08:30N 60°42' E 004°25'8914.9
2018-May-23 02:31N 59°14' E 004°11'015.3
2018-May-23 02:30N 59°13' E 004°11'715.2
2018-May-23 02:01N 59°06' E 004°11'1015.4
2018-May-23 01:22N 58°56' E 004°11'1815.0
2018-May-23 00:12N 58°39' E 004°08'415.4
2018-May-22 23:57N 58°35' E 004°08'715.1
2018-May-22 23:29N 58°28' E 004°07'714.8
2018-May-22 23:00N 58°21' E 004°07'814.9
2018-May-22 22:28N 58°13' E 004°06'714.9
2018-May-22 22:00N 58°06' E 004°06'714.8
2018-May-22 21:31N 57°58' E 004°05'2314.7
2018-May-22 19:57N 57°36' E 004°02'914.5
2018-May-22 19:18N 57°26' E 004°01'414.6
2018-May-22 19:00N 57°22' E 004°01'714.1
2018-May-22 18:30N 57°15' E 003°60'4 8.5
2018-May-22 17:59N 57°11' E 003°57'811.9
2018-May-22 17:21N 57°03' E 003°58'714.4
2018-May-22 16:54N 56°56' E 003°56'614.7
2018-May-22 16:28N 56°50' E 003°55'17414.8
2018-May-22 04:41N 53°57' E 003°27'312.5
2018-May-22 04:25N 53°54' E 003°27'614.3
2018-May-22 04:00N 53°49' E 003°21'714.4
2018-May-22 03:30N 53°43' E 003°13'714.2
2018-May-22 03:00N 53°37' E 003°07'1109.3
2018-May-22 03:00N 53°36' E 003°06'611.3 010 / 171014.3 5.4 11.0 9.0 8.0
2018-May-22 02:30N 53°31' E 003°01'713.8
2018-May-22 02:00N 53°25' E 002°56'713.7
2018-May-22 01:30N 53°19' E 002°52'713.7
2018-May-22 01:00N 53°13' E 002°46'713.7
2018-May-22 00:30N 53°06' E 002°42'713.6
2018-May-22 00:00N 52°60' E 002°41'6422.8
2018-May-22 00:00N 52°54' E 002°36'3 5.7 020 / 181013.510.8 10.6 9.6
2018-May-21 23:30N 52°53' E 002°40'714.4
2018-May-21 23:00N 52°46' E 002°38'714.8
2018-May-21 22:30N 52°38' E 002°35'815.0
2018-May-21 22:00N 52°32' E 002°29'815.6
2018-May-21 21:30N 52°24' E 002°26'816.0
2018-May-21 21:00N 52°17' E 002°22'816.4
2018-May-21 20:30N 52°09' E 002°19'816.7
2018-May-21 20:00N 52°00' E 002°15'816.8
2018-May-21 19:30N 51°52' E 002°12'816.8
2018-May-21 19:00N 51°45' E 002°06'816.7
2018-May-21 18:30N 51°38' E 001°59'816.6
2018-May-21 18:00N 51°31' E 001°51'816.4
2018-May-21 17:30N 51°24' E 001°45'816.4
2018-May-21 17:00N 51°16' E 001°40'714.7
2018-May-21 16:30N 51°10' E 001°34'713.0
2018-May-21 16:00N 51°07' E 001°25'4 6.0
2018-May-21 15:25N 51°07' E 001°19'0 0.0
2018-May-21 13:58N 51°07' E 001°19'0 0.0
2018-May-21 13:30N 51°07' E 001°19'0 0.0
2018-May-21 11:31N 51°07' E 001°19'0 0.0
2018-May-21 10:42N 51°07' E 001°19'0 0.0
2018-May-21 10:06N 51°07' E 001°19'0 0.0
2018-May-21 09:50N 51°07' E 001°19'0 0.0
2018-May-21 08:08N 51°07' E 001°19'0 0.0
2018-May-21 07:55N 51°07' E 001°19'0 0.0
2018-May-21 07:18N 51°07' E 001°19'0 0.0
2018-May-21 07:00N 51°07' E 001°19'0 0.0
2018-May-21 06:12N 51°07' E 001°19'0 0.0
2018-May-21 05:50N 51°07' E 001°19'0 0.0
2018-May-21 03:40N 51°07' E 001°19'0 0.0
2018-May-21 03:22N 51°07' E 001°19'0 0.0
2018-May-21 02:57N 51°07' E 001°19'0 0.0
2018-May-21 02:16N 51°07' E 001°19'0 0.0
2018-May-21 01:55N 51°07' E 001°19'0 0.0
2018-May-21 00:08N 51°07' E 001°19'0 0.0
2018-May-20 23:53N 51°07' E 001°19'0 0.0
2018-May-20 23:09N 51°07' E 001°19'0 0.0
2018-May-20 22:48N 51°07' E 001°19'0 0.0
2018-May-20 22:26N 51°07' E 001°19'0 0.0
2018-May-20 21:55N 51°07' E 001°19'0 0.0
2018-May-20 21:25N 51°07' E 001°19'0 0.0
2018-May-20 20:55N 51°07' E 001°19'0 0.0
2018-May-20 20:29N 51°07' E 001°19'0 0.0
2018-May-20 19:08N 51°07' E 001°19'0 0.0
2018-May-20 18:55N 51°07' E 001°19'0 0.0
2018-May-20 18:23N 51°07' E 001°19'0 0.0
2018-May-20 17:49N 51°07' E 001°19'0 0.0
2018-May-20 14:14N 51°07' E 001°19'0 0.0
2018-May-20 13:52N 51°07' E 001°19'0 0.0
2018-May-20 12:20N 51°07' E 001°19'0 0.0
2018-May-20 10:56N 51°07' E 001°19'0 0.0
2018-May-20 09:42N 51°07' E 001°19'0 0.0
2018-May-20 09:18N 51°07' E 001°19'0 0.0
2018-May-20 08:05N 51°07' E 001°19'0 0.0
2018-May-20 07:37N 51°07' E 001°19'0 0.0
2018-May-20 07:22N 51°07' E 001°19'2 2.1
2018-May-20 06:13N 51°07' E 001°23'2 9.9
2018-May-20 06:01N 51°07' E 001°26'4 7.2
2018-May-20 05:31N 51°08' E 001°32'5 9.8
2018-May-20 05:00N 51°10' E 001°39'510.1
2018-May-20 04:30N 51°13' E 001°45'510.3
2018-May-20 04:00N 51°18' E 001°49'510.2
2018-May-20 03:30N 51°23' E 001°52'510.0
2018-May-20 03:00N 51°27' E 001°56'510.4
2018-May-20 02:30N 51°31' E 002°02'5 9.2
2018-May-20 02:01N 51°34' E 002°07'5 9.2
2018-May-20 01:30N 51°37' E 002°12'5 9.8
2018-May-20 01:00N 51°40' E 002°18'510.6
2018-May-20 00:30N 51°44' E 002°24'510.8
2018-May-20 00:00N 51°49' E 002°29'510.9
2018-May-19 23:30N 51°53' E 002°34'1511.9
2018-May-19 22:13N 52°05' E 002°50'811.7
2018-May-19 21:33N 52°11' E 002°58'611.2
2018-May-19 21:00N 52°16' E 003°03'511.0
2018-May-19 20:31N 52°21' E 003°09'2210.5
2018-May-19 18:24N 52°38' E 003°30'42 8.4
2018-May-19 13:22N 53°08' E 004°20'3 9.9
2018-May-19 13:00N 53°11' E 004°24'5 9.7
2018-May-19 12:26N 53°16' E 004°28'16 8.5
2018-May-19 10:33N 53°30' E 004°41'1 7.8
2018-May-19 10:25N 53°30' E 004°42'4 7.5
2018-May-19 09:56N 53°32' E 004°48'3 6.9
2018-May-19 09:30N 53°33' E 004°53'4 7.0
2018-May-19 08:58N 53°34' E 004°59'3 7.1
2018-May-19 08:30N 53°35' E 005°04'5 7.1
2018-May-19 07:45N 53°37' E 005°13'2 7.4
2018-May-19 07:30N 53°37' E 005°16'5 7.7
2018-May-19 06:51N 53°39' E 005°24'25 8.8
2018-May-19 04:00N 53°42' E 006°06'78 8.4 200 / 61021.8 2.2 10.710.310.0
2018-May-18 18:40N 54°00' E 008°15'314.5
2018-May-18 18:29N 53°60' E 008°20'816.3
2018-May-18 18:00N 53°58' E 008°33'815.3
2018-May-18 17:30N 53°53' E 008°42'713.3
2018-May-18 17:00N 53°50' E 008°53'713.6
2018-May-18 16:30N 53°52' E 009°04'3 6.4
2018-May-18 16:00N 53°54' E 009°09'0 0.0
2018-May-18 15:30N 53°54' E 009°09'1 2.7
2018-May-18 15:00N 53°54' E 009°10'3 6.9
2018-May-18 14:30N 53°57' E 009°14'4 7.1
2018-May-18 14:00N 54°00' E 009°18'3 6.1
2018-May-18 13:31N 54°03' E 009°18'4 7.3
2018-May-18 13:00N 54°07' E 009°20'3 6.4
2018-May-18 12:30N 54°09' E 009°23'3 6.9
2018-May-18 12:01N 54°11' E 009°28'3 6.8
2018-May-18 11:31N 54°12' E 009°33'3 5.5
2018-May-18 11:01N 54°14' E 009°36'3 6.6
2018-May-18 10:31N 54°17' E 009°39'3 6.1
2018-May-18 10:01N 54°19' E 009°43'3 6.9
2018-May-18 09:30N 54°21' E 009°47'13 0.7
2018-May-17 15:47N 54°20' E 010°09'0 0.0
2018-May-17 09:38N 54°20' E 010°09'0 0.0
2018-May-17 09:20N 54°20' E 010°09'0 0.0
2018-May-17 08:20N 54°20' E 010°09'0 0.0
2018-May-17 07:56N 54°20' E 010°09'0 0.0
2018-May-17 07:02N 54°20' E 010°09'0 0.0
2018-May-17 06:56N 54°20' E 010°09'0 0.0
2018-May-17 06:16N 54°20' E 010°09'0 1.2
2018-May-17 06:00N 54°20' E 010°09'2 3.5
2018-May-17 05:30N 54°21' E 010°10'4 8.7
2018-May-17 05:01N 54°25' E 010°13'610.2
2018-May-17 04:28N 54°30' E 010°18'4 9.4
2018-May-17 04:01N 54°32' E 010°25'612.2
2018-May-17 03:31N 54°34' E 010°35'612.7
2018-May-17 03:01N 54°36' E 010°45'612.1
2018-May-17 02:30N 54°41' E 010°51'713.2
2018-May-17 02:01N 54°47' E 010°52'713.5
2018-May-17 01:30N 54°54' E 010°53'613.1
2018-May-17 01:01N 54°59' E 011°00'713.4
2018-May-17 00:31N 55°06' E 011°02'612.5
2018-May-17 00:00N 55°12' E 011°05'612.3
2018-May-16 23:30N 55°18' E 011°03'611.1
2018-May-16 23:00N 55°23' E 011°01'713.3
2018-May-16 22:30N 55°29' E 010°54'713.4
2018-May-16 22:00N 55°35' E 010°49'613.0
2018-May-16 21:30N 55°41' E 010°47'713.8
2018-May-16 21:00N 55°48' E 010°48'713.3
2018-May-16 20:30N 55°54' E 010°54'712.9
2018-May-16 20:00N 55°59' E 011°01'612.2
2018-May-16 19:30N 56°03' E 010°52'713.7
2018-May-16 19:00N 56°03' E 010°40'713.5
2018-May-16 18:28N 56°06' E 010°28'612.7
2018-May-16 18:00N 56°09' E 010°19'3 0.2
2018-May-16 05:56N 56°09' E 010°13'1 1.9
2018-May-16 05:13N 56°09' E 010°16'2 8.6
2018-May-16 05:00N 56°09' E 010°19'5 9.2
2018-May-16 04:30N 56°07' E 010°26'713.0
2018-May-16 03:58N 56°04' E 010°38'613.8
2018-May-16 03:30N 56°03' E 010°49'713.8
2018-May-16 03:00N 56°05' E 011°01'713.5
2018-May-16 02:27N 56°09' E 011°13'911.2
2018-May-16 01:39N 56°16' E 011°21'311.3
2018-May-16 01:21N 56°19' E 011°24'910.6
2018-May-16 00:32N 56°20' E 011°40'0 9.2
2018-May-16 00:30N 56°20' E 011°40'9 9.4
2018-May-15 23:30N 56°19' E 011°57'510.1
2018-May-15 23:00N 56°18' E 012°06'510.4
2018-May-15 22:30N 56°15' E 012°14'713.2
2018-May-15 22:00N 56°11' E 012°23'713.7
2018-May-15 21:31N 56°07' E 012°33'714.1
2018-May-15 21:00N 56°01' E 012°41'713.7
2018-May-15 20:30N 55°55' E 012°45'713.1
2018-May-15 20:00N 55°48' E 012°44'510.7
2018-May-15 19:30N 55°44' E 012°39'2 5.0
2018-May-15 19:00N 55°42' E 012°36'0 0.3
2018-May-15 18:29N 55°42' E 012°36'0 0.0
2018-May-15 17:58N 55°42' E 012°36'0 0.0
2018-May-15 17:29N 55°42' E 012°36'0 0.0
2018-May-15 17:00N 55°42' E 012°36'0 0.0
2018-May-15 16:29N 55°42' E 012°36'0 0.0
2018-May-15 15:59N 55°42' E 012°36'0 0.0
2018-May-15 15:28N 55°42' E 012°36'0 0.0
2018-May-15 15:00N 55°42' E 012°36'0 0.0
2018-May-15 14:30N 55°42' E 012°36'0 0.0
2018-May-15 14:00N 55°42' E 012°36'0 0.0
2018-May-15 13:29N 55°42' E 012°36'0 0.0
2018-May-15 12:59N 55°42' E 012°36'0 0.0
2018-May-15 12:29N 55°42' E 012°36'0 0.0
2018-May-15 11:59N 55°42' E 012°36'0 0.0
2018-May-15 11:28N 55°42' E 012°36'0 0.0
2018-May-15 10:58N 55°42' E 012°36'0 0.0
2018-May-15 10:28N 55°42' E 012°36'0 0.0
2018-May-15 09:58N 55°42' E 012°36'0 0.0
2018-May-15 09:28N 55°42' E 012°36'0 0.0
2018-May-15 08:58N 55°42' E 012°36'0 0.0
2018-May-15 08:28N 55°42' E 012°36'0 0.0
2018-May-15 08:00N 55°42' E 012°36'0 0.0
2018-May-15 07:30N 55°42' E 012°36'0 0.0
2018-May-15 07:00N 55°42' E 012°36'0 0.0
2018-May-15 06:26N 55°42' E 012°36'0 0.0
2018-May-15 05:58N 55°42' E 012°36'0 0.0
2018-May-15 05:30N 55°42' E 012°36'0 0.0
2018-May-15 05:00N 55°42' E 012°36'0 0.0
2018-May-15 04:30N 55°42' E 012°36'0 0.0
2018-May-15 04:00N 55°42' E 012°36'0 0.0
2018-May-15 03:29N 55°42' E 012°36'0 0.0
2018-May-15 02:59N 55°42' E 012°36'0 0.0
2018-May-15 02:30N 55°42' E 012°36'0 0.0
2018-May-15 01:59N 55°42' E 012°36'0 0.0
2018-May-15 01:28N 55°42' E 012°36'0 0.0
2018-May-15 01:00N 55°42' E 012°36'0 0.0
2018-May-15 00:30N 55°42' E 012°36'0 0.0
2018-May-14 23:59N 55°42' E 012°36'0 0.0
2018-May-14 23:29N 55°42' E 012°36'0 0.0
2018-May-14 23:00N 55°42' E 012°36'0 0.0
2018-May-14 22:30N 55°42' E 012°36'0 0.0
2018-May-14 21:59N 55°42' E 012°36'0 0.0
2018-May-14 21:28N 55°42' E 012°36'0 0.0
2018-May-14 20:57N 55°42' E 012°36'0 0.0
2018-May-14 20:30N 55°42' E 012°36'0 0.0
2018-May-14 19:59N 55°42' E 012°36'0 0.0
2018-May-14 19:27N 55°42' E 012°36'0 0.0
2018-May-14 19:00N 55°42' E 012°36'0 0.0
2018-May-14 18:29N 55°42' E 012°36'0 0.0
2018-May-14 17:59N 55°42' E 012°36'0 0.0
2018-May-14 17:28N 55°42' E 012°36'0 0.0
2018-May-14 16:58N 55°42' E 012°36'0 0.0
2018-May-14 16:30N 55°42' E 012°36'0 0.0
2018-May-14 16:00N 55°42' E 012°36'0 0.0
2018-May-14 15:30N 55°42' E 012°36'0 0.0
2018-May-14 15:00N 55°42' E 012°36'0 0.0
2018-May-14 14:30N 55°42' E 012°36'0 0.0
2018-May-14 13:58N 55°42' E 012°36'0 0.0
2018-May-14 13:28N 55°42' E 012°36'0 0.0
2018-May-14 12:59N 55°42' E 012°36'0 0.0
2018-May-14 12:30N 55°42' E 012°36'0 0.0
2018-May-14 12:00N 55°42' E 012°36'0 0.0
2018-May-14 11:30N 55°42' E 012°36'0 0.0
2018-May-14 11:00N 55°42' E 012°36'0 0.0
2018-May-14 10:30N 55°42' E 012°36'1 2.5
2018-May-14 10:01N 55°43' E 012°38'4 8.6
2018-May-14 09:31N 55°46' E 012°42'4 8.4
2018-May-14 09:01N 55°50' E 012°42'612.1
2018-May-14 08:31N 55°56' E 012°39'612.8
2018-May-14 08:00N 56°03' E 012°39'612.7
2018-May-14 07:30N 56°07' E 012°31'1213.6
2018-May-14 06:37N 56°14' E 012°13'213.3
2018-May-14 06:30N 56°15' E 012°10'713.2
2018-May-14 05:59N 56°19' E 012°02'813.9
2018-May-14 05:26N 56°27' E 011°57'1013.9
2018-May-14 04:43N 56°36' E 011°53'313.9
2018-May-14 04:30N 56°39' E 011°52'714.0
2018-May-14 04:00N 56°46' E 011°51'4374.5
2018-May-14 04:00N 56°42' E 011°48'1122.2 130 / 181019.510.8 15.012.313.0
2018-May-14 03:30N 56°53' E 011°47'713.9
2018-May-14 03:00N 56°59' E 011°42'714.5
2018-May-14 02:30N 57°06' E 011°37'714.6
2018-May-14 02:00N 57°13' E 011°31'714.5
2018-May-14 01:30N 57°20' E 011°27'714.7
2018-May-14 01:00N 57°26' E 011°23'714.8
2018-May-14 00:30N 57°34' E 011°20'714.5
2018-May-14 00:00N 57°41' E 011°17'612.8
2018-May-13 23:30N 57°47' E 011°12'612.3
2018-May-13 23:00N 57°52' E 011°08'  
Track history (hours):
 
Tides and Currents Weather Stations Pressure Air Temp Water Temp Dewpoint Dewpoint Depression Visibility Wind Speed Wind Dir Waves Ship Positions

Saga Sapphire

Last reported at 2018-May-23 22:30 UTC. Time now 2018-May-23 22:32 UTC.
Position N 60°54' E 004°40'.

Length 200 m; draft 8.4 m.

Type: Ship. MMSI: 256208000.

Date/timePositionNaut miles runAvg speedWind from/ knotsBaromVisibWave heightAir tempDewpointWater temp
2018-May-23 22:30N 60°54' E 004°40'713.8
2018-May-23 22:00N 60°60' E 004°48'714.5
2018-May-23 21:30N 61°04' E 004°60'713.8
2018-May-23 21:00N 61°05' E 005°13'713.8
2018-May-23 20:29N 61°04' E 005°28'714.5
2018-May-23 20:00N 61°07' E 005°42'714.3
2018-May-23 19:30N 61°08' E 005°56'714.0
2018-May-23 18:59N 61°08' E 006°11'713.3
2018-May-23 18:30N 61°06' E 006°24'612.1
2018-May-23 17:59N 61°10' E 006°34'511.2
2018-May-23 17:30N 61°15' E 006°36'3 1.5
2018-May-23 15:11N 61°18' E 006°40'210.9
2018-May-23 14:59N 61°16' E 006°38'510.5
2018-May-23 14:30N 61°11' E 006°35'611.7
2018-May-23 14:00N 61°06' E 006°27'713.6
2018-May-23 13:30N 61°07' E 006°14'713.5
2018-May-23 13:00N 61°08' E 006°00'713.5
2018-May-23 12:30N 61°08' E 005°46'713.8
2018-May-23 12:00N 61°05' E 005°33'712.9
2018-May-23 11:29N 61°05' E 005°19'713.1
2018-May-23 10:59N 61°05' E 005°06'713.9
2018-May-23 10:30N 61°02' E 004°53'713.7
2018-May-23 10:00N 60°58' E 004°42'612.2
2018-May-23 09:29N 60°52' E 004°37'510.6
2018-May-23 09:00N 60°48' E 004°30'612.6
2018-May-23 08:30N 60°42' E 004°25'8914.9
2018-May-23 02:31N 59°14' E 004°11'015.3
2018-May-23 02:30N 59°13' E 004°11'715.2
2018-May-23 02:01N 59°06' E 004°11'1015.4
2018-May-23 01:22N 58°56' E 004°11'1815.0
2018-May-23 00:12N 58°39' E 004°08'415.4
2018-May-22 23:57N 58°35' E 004°08'715.1
2018-May-22 23:29N 58°28' E 004°07'714.8
2018-May-22 23:00N 58°21' E 004°07'814.9
2018-May-22 22:28N 58°13' E 004°06'714.9
2018-May-22 22:00N 58°06' E 004°06'714.8
2018-May-22 21:31N 57°58' E 004°05'2314.7
2018-May-22 19:57N 57°36' E 004°02'914.5
2018-May-22 19:18N 57°26' E 004°01'414.6
2018-May-22 19:00N 57°22' E 004°01'714.1
2018-May-22 18:30N 57°15' E 003°60'4 8.5
2018-May-22 17:59N 57°11' E 003°57'811.9
2018-May-22 17:21N 57°03' E 003°58'714.4
2018-May-22 16:54N 56°56' E 003°56'614.7
2018-May-22 16:28N 56°50' E 003°55'17414.8
2018-May-22 04:41N 53°57' E 003°27'312.5
2018-May-22 04:25N 53°54' E 003°27'614.3
2018-May-22 04:00N 53°49' E 003°21'714.4
2018-May-22 03:30N 53°43' E 003°13'714.2
2018-May-22 03:00N 53°37' E 003°07'1109.3
2018-May-22 03:00N 53°36' E 003°06'611.3 010 / 171014.3 5.4 11.0 9.0 8.0
2018-May-22 02:30N 53°31' E 003°01'713.8
2018-May-22 02:00N 53°25' E 002°56'713.7
2018-May-22 01:30N 53°19' E 002°52'713.7
2018-May-22 01:00N 53°13' E 002°46'713.7
2018-May-22 00:30N 53°06' E 002°42'713.6
2018-May-22 00:00N 52°60' E 002°41'6422.8
2018-May-22 00:00N 52°54' E 002°36'3 5.7 020 / 181013.510.8 10.6 9.6
2018-May-21 23:30N 52°53' E 002°40'714.4
2018-May-21 23:00N 52°46' E 002°38'714.8
2018-May-21 22:30N 52°38' E 002°35'815.0
2018-May-21 22:00N 52°32' E 002°29'815.6
2018-May-21 21:30N 52°24' E 002°26'816.0
2018-May-21 21:00N 52°17' E 002°22'816.4
2018-May-21 20:30N 52°09' E 002°19'816.7
2018-May-21 20:00N 52°00' E 002°15'816.8
2018-May-21 19:30N 51°52' E 002°12'816.8
2018-May-21 19:00N 51°45' E 002°06'816.7
2018-May-21 18:30N 51°38' E 001°59'816.6
2018-May-21 18:00N 51°31' E 001°51'816.4
2018-May-21 17:30N 51°24' E 001°45'816.4
2018-May-21 17:00N 51°16' E 001°40'714.7
2018-May-21 16:30N 51°10' E 001°34'713.0
2018-May-21 16:00N 51°07' E 001°25'4 6.0
2018-May-21 15:25N 51°07' E 001°19'0 0.0
2018-May-21 13:58N 51°07' E 001°19'0 0.0
2018-May-21 13:30N 51°07' E 001°19'0 0.0
2018-May-21 11:31N 51°07' E 001°19'0 0.0
2018-May-21 10:42N 51°07' E 001°19'0 0.0
2018-May-21 10:06N 51°07' E 001°19'0 0.0
2018-May-21 09:50N 51°07' E 001°19'0 0.0
2018-May-21 08:08N 51°07' E 001°19'0 0.0
2018-May-21 07:55N 51°07' E 001°19'0 0.0
2018-May-21 07:18N 51°07' E 001°19'0 0.0
2018-May-21 07:00N 51°07' E 001°19'0 0.0
2018-May-21 06:12N 51°07' E 001°19'0 0.0
2018-May-21 05:50N 51°07' E 001°19'0 0.0
2018-May-21 03:40N 51°07' E 001°19'0 0.0
2018-May-21 03:22N 51°07' E 001°19'0 0.0
2018-May-21 02:57N 51°07' E 001°19'0 0.0
2018-May-21 02:16N 51°07' E 001°19'0 0.0
2018-May-21 01:55N 51°07' E 001°19'0 0.0
2018-May-21 00:08N 51°07' E 001°19'0 0.0
2018-May-20 23:53N 51°07' E 001°19'0 0.0
2018-May-20 23:09N 51°07' E 001°19'0 0.0
2018-May-20 22:48N 51°07' E 001°19'0 0.0
2018-May-20 22:26N 51°07' E 001°19'0 0.0
2018-May-20 21:55N 51°07' E 001°19'0 0.0
2018-May-20 21:25N 51°07' E 001°19'0 0.0
2018-May-20 20:55N 51°07' E 001°19'0 0.0
2018-May-20 20:29N 51°07' E 001°19'0 0.0
2018-May-20 19:08N 51°07' E 001°19'0 0.0
2018-May-20 18:55N 51°07' E 001°19'0 0.0
2018-May-20 18:23N 51°07' E 001°19'0 0.0
2018-May-20 17:49N 51°07' E 001°19'0 0.0
2018-May-20 14:14N 51°07' E 001°19'0 0.0
2018-May-20 13:52N 51°07' E 001°19'0 0.0
2018-May-20 12:20N 51°07' E 001°19'0 0.0
2018-May-20 10:56N 51°07' E 001°19'0 0.0
2018-May-20 09:42N 51°07' E 001°19'0 0.0
2018-May-20 09:18N 51°07' E 001°19'0 0.0
2018-May-20 08:05N 51°07' E 001°19'0 0.0
2018-May-20 07:37N 51°07' E 001°19'0 0.0
2018-May-20 07:22N 51°07' E 001°19'2 2.1
2018-May-20 06:13N 51°07' E 001°23'2 9.9
2018-May-20 06:01N 51°07' E 001°26'4 7.2
2018-May-20 05:31N 51°08' E 001°32'5 9.8
2018-May-20 05:00N 51°10' E 001°39'510.1
2018-May-20 04:30N 51°13' E 001°45'510.3
2018-May-20 04:00N 51°18' E 001°49'510.2
2018-May-20 03:30N 51°23' E 001°52'510.0
2018-May-20 03:00N 51°27' E 001°56'510.4
2018-May-20 02:30N 51°31' E 002°02'5 9.2
2018-May-20 02:01N 51°34' E 002°07'5 9.2
2018-May-20 01:30N 51°37' E 002°12'5 9.8
2018-May-20 01:00N 51°40' E 002°18'510.6
2018-May-20 00:30N 51°44' E 002°24'510.8
2018-May-20 00:00N 51°49' E 002°29'510.9
2018-May-19 23:30N 51°53' E 002°34'1511.9
2018-May-19 22:13N 52°05' E 002°50'811.7
2018-May-19 21:33N 52°11' E 002°58'611.2
2018-May-19 21:00N 52°16' E 003°03'511.0
2018-May-19 20:31N 52°21' E 003°09'2210.5
2018-May-19 18:24N 52°38' E 003°30'42 8.4
2018-May-19 13:22N 53°08' E 004°20'3 9.9
2018-May-19 13:00N 53°11' E 004°24'5 9.7
2018-May-19 12:26N 53°16' E 004°28'16 8.5
2018-May-19 10:33N 53°30' E 004°41'1 7.8
2018-May-19 10:25N 53°30' E 004°42'4 7.5
2018-May-19 09:56N 53°32' E 004°48'3 6.9
2018-May-19 09:30N 53°33' E 004°53'4 7.0
2018-May-19 08:58N 53°34' E 004°59'3 7.1
2018-May-19 08:30N 53°35' E 005°04'5 7.1
2018-May-19 07:45N 53°37' E 005°13'2 7.4
2018-May-19 07:30N 53°37' E 005°16'5 7.7
2018-May-19 06:51N 53°39' E 005°24'25 8.8
2018-May-19 04:00N 53°42' E 006°06'78 8.4 200 / 61021.8 2.2 10.710.310.0
2018-May-18 18:40N 54°00' E 008°15'314.5
2018-May-18 18:29N 53°60' E 008°20'816.3
2018-May-18 18:00N 53°58' E 008°33'815.3
2018-May-18 17:30N 53°53' E 008°42'713.3
2018-May-18 17:00N 53°50' E 008°53'713.6
2018-May-18 16:30N 53°52' E 009°04'3 6.4
2018-May-18 16:00N 53°54' E 009°09'0 0.0
2018-May-18 15:30N 53°54' E 009°09'1 2.7
2018-May-18 15:00N 53°54' E 009°10'3 6.9
2018-May-18 14:30N 53°57' E 009°14'4 7.1
2018-May-18 14:00N 54°00' E 009°18'3 6.1
2018-May-18 13:31N 54°03' E 009°18'4 7.3
2018-May-18 13:00N 54°07' E 009°20'3 6.4
2018-May-18 12:30N 54°09' E 009°23'3 6.9
2018-May-18 12:01N 54°11' E 009°28'3 6.8
2018-May-18 11:31N 54°12' E 009°33'3 5.5
2018-May-18 11:01N 54°14' E 009°36'3 6.6
2018-May-18 10:31N 54°17' E 009°39'3 6.1
2018-May-18 10:01N 54°19' E 009°43'3 6.9
2018-May-18 09:30N 54°21' E 009°47'13 0.7
2018-May-17 15:47N 54°20' E 010°09'0 0.0
2018-May-17 09:38N 54°20' E 010°09'0 0.0
2018-May-17 09:20N 54°20' E 010°09'0 0.0
2018-May-17 08:20N 54°20' E 010°09'0 0.0
2018-May-17 07:56N 54°20' E 010°09'0 0.0
2018-May-17 07:02N 54°20' E 010°09'0 0.0
2018-May-17 06:56N 54°20' E 010°09'0 0.0
2018-May-17 06:16N 54°20' E 010°09'0 1.2
2018-May-17 06:00N 54°20' E 010°09'2 3.5
2018-May-17 05:30N 54°21' E 010°10'4 8.7
2018-May-17 05:01N 54°25' E 010°13'610.2
2018-May-17 04:28N 54°30' E 010°18'4 9.4
2018-May-17 04:01N 54°32' E 010°25'612.2
2018-May-17 03:31N 54°34' E 010°35'612.7
2018-May-17 03:01N 54°36' E 010°45'612.1
2018-May-17 02:30N 54°41' E 010°51'713.2
2018-May-17 02:01N 54°47' E 010°52'713.5
2018-May-17 01:30N 54°54' E 010°53'613.1
2018-May-17 01:01N 54°59' E 011°00'713.4
2018-May-17 00:31N 55°06' E 011°02'612.5
2018-May-17 00:00N 55°12' E 011°05'612.3
2018-May-16 23:30N 55°18' E 011°03'611.1
2018-May-16 23:00N 55°23' E 011°01'713.3
2018-May-16 22:30N 55°29' E 010°54'713.4
2018-May-16 22:00N 55°35' E 010°49'613.0
2018-May-16 21:30N 55°41' E 010°47'713.8
2018-May-16 21:00N 55°48' E 010°48'713.3
2018-May-16 20:30N 55°54' E 010°54'712.9
2018-May-16 20:00N 55°59' E 011°01'612.2
2018-May-16 19:30N 56°03' E 010°52'713.7
2018-May-16 19:00N 56°03' E 010°40'713.5
2018-May-16 18:28N 56°06' E 010°28'612.7
2018-May-16 18:00N 56°09' E 010°19'3 0.2
2018-May-16 05:56N 56°09' E 010°13'1 1.9
2018-May-16 05:13N 56°09' E 010°16'2 8.6
2018-May-16 05:00N 56°09' E 010°19'5 9.2
2018-May-16 04:30N 56°07' E 010°26'713.0
2018-May-16 03:58N 56°04' E 010°38'613.8
2018-May-16 03:30N 56°03' E 010°49'713.8
2018-May-16 03:00N 56°05' E 011°01'713.5
2018-May-16 02:27N 56°09' E 011°13'911.2
2018-May-16 01:39N 56°16' E 011°21'311.3
2018-May-16 01:21N 56°19' E 011°24'910.6
2018-May-16 00:32N 56°20' E 011°40'0 9.2
2018-May-16 00:30N 56°20' E 011°40'9 9.4
2018-May-15 23:30N 56°19' E 011°57'510.1
2018-May-15 23:00N 56°18' E 012°06'510.4
2018-May-15 22:30N 56°15' E 012°14'713.2
2018-May-15 22:00N 56°11' E 012°23'713.7
2018-May-15 21:31N 56°07' E 012°33'714.1
2018-May-15 21:00N 56°01' E 012°41'713.7
2018-May-15 20:30N 55°55' E 012°45'713.1
2018-May-15 20:00N 55°48' E 012°44'510.7
2018-May-15 19:30N 55°44' E 012°39'2 5.0
2018-May-15 19:00N 55°42' E 012°36'0 0.3
2018-May-15 18:29N 55°42' E 012°36'0 0.0
2018-May-15 17:58N 55°42' E 012°36'0 0.0
2018-May-15 17:29N 55°42' E 012°36'0 0.0
2018-May-15 17:00N 55°42' E 012°36'0 0.0
2018-May-15 16:29N 55°42' E 012°36'0 0.0
2018-May-15 15:59N 55°42' E 012°36'0 0.0
2018-May-15 15:28N 55°42' E 012°36'0 0.0
2018-May-15 15:00N 55°42' E 012°36'0 0.0
2018-May-15 14:30N 55°42' E 012°36'0 0.0
2018-May-15 14:00N 55°42' E 012°36'0 0.0
2018-May-15 13:29N 55°42' E 012°36'0 0.0
2018-May-15 12:59N 55°42' E 012°36'0 0.0
2018-May-15 12:29N 55°42' E 012°36'0 0.0
2018-May-15 11:59N 55°42' E 012°36'0 0.0
2018-May-15 11:28N 55°42' E 012°36'0 0.0
2018-May-15 10:58N 55°42' E 012°36'0 0.0
2018-May-15 10:28N 55°42' E 012°36'0 0.0
2018-May-15 09:58N 55°42' E 012°36'0 0.0
2018-May-15 09:28N 55°42' E 012°36'0 0.0
2018-May-15 08:58N 55°42' E 012°36'0 0.0
2018-May-15 08:28N 55°42' E 012°36'0 0.0
2018-May-15 08:00N 55°42' E 012°36'0 0.0
2018-May-15 07:30N 55°42' E 012°36'0 0.0
2018-May-15 07:00N 55°42' E 012°36'0 0.0
2018-May-15 06:26N 55°42' E 012°36'0 0.0
2018-May-15 05:58N 55°42' E 012°36'0 0.0
2018-May-15 05:30N 55°42' E 012°36'0 0.0
2018-May-15 05:00N 55°42' E 012°36'0 0.0
2018-May-15 04:30N 55°42' E 012°36'0 0.0
2018-May-15 04:00N 55°42' E 012°36'0 0.0
2018-May-15 03:29N 55°42' E 012°36'0 0.0
2018-May-15 02:59N 55°42' E 012°36'0 0.0
2018-May-15 02:30N 55°42' E 012°36'0 0.0
2018-May-15 01:59N 55°42' E 012°36'0 0.0
2018-May-15 01:28N 55°42' E 012°36'0 0.0
2018-May-15 01:00N 55°42' E 012°36'0 0.0
2018-May-15 00:30N 55°42' E 012°36'0 0.0
2018-May-14 23:59N 55°42' E 012°36'0 0.0
2018-May-14 23:29N 55°42' E 012°36'0 0.0
2018-May-14 23:00N 55°42' E 012°36'0 0.0
2018-May-14 22:30N 55°42' E 012°36'0 0.0
2018-May-14 21:59N 55°42' E 012°36'0 0.0
2018-May-14 21:28N 55°42' E 012°36'0 0.0
2018-May-14 20:57N 55°42' E 012°36'0 0.0
2018-May-14 20:30N 55°42' E 012°36'0 0.0
2018-May-14 19:59N 55°42' E 012°36'0 0.0
2018-May-14 19:27N 55°42' E 012°36'0 0.0
2018-May-14 19:00N 55°42' E 012°36'0 0.0
2018-May-14 18:29N 55°42' E 012°36'0 0.0
2018-May-14 17:59N 55°42' E 012°36'0 0.0
2018-May-14 17:28N 55°42' E 012°36'0 0.0
2018-May-14 16:58N 55°42' E 012°36'0 0.0
2018-May-14 16:30N 55°42' E 012°36'0 0.0
2018-May-14 16:00N 55°42' E 012°36'0 0.0
2018-May-14 15:30N 55°42' E 012°36'0 0.0
2018-May-14 15:00N 55°42' E 012°36'0 0.0
2018-May-14 14:30N 55°42' E 012°36'0 0.0
2018-May-14 13:58N 55°42' E 012°36'0 0.0
2018-May-14 13:28N 55°42' E 012°36'0 0.0
2018-May-14 12:59N 55°42' E 012°36'0 0.0
2018-May-14 12:30N 55°42' E 012°36'0 0.0
2018-May-14 12:00N 55°42' E 012°36'0 0.0
2018-May-14 11:30N 55°42' E 012°36'0 0.0
2018-May-14 11:00N 55°42' E 012°36'0 0.0
2018-May-14 10:30N 55°42' E 012°36'1 2.5
2018-May-14 10:01N 55°43' E 012°38'4 8.6
2018-May-14 09:31N 55°46' E 012°42'4 8.4
2018-May-14 09:01N 55°50' E 012°42'612.1
2018-May-14 08:31N 55°56' E 012°39'612.8
2018-May-14 08:00N 56°03' E 012°39'612.7
2018-May-14 07:30N 56°07' E 012°31'1213.6
2018-May-14 06:37N 56°14' E 012°13'213.3
2018-May-14 06:30N 56°15' E 012°10'713.2
2018-May-14 05:59N 56°19' E 012°02'813.9
2018-May-14 05:26N 56°27' E 011°57'1013.9
2018-May-14 04:43N 56°36' E 011°53'313.9
2018-May-14 04:30N 56°39' E 011°52'714.0
2018-May-14 04:00N 56°46' E 011°51'4374.5
2018-May-14 04:00N 56°42' E 011°48'1122.2 130 / 181019.510.8 15.012.313.0
2018-May-14 03:30N 56°53' E 011°47'713.9
2018-May-14 03:00N 56°59' E 011°42'714.5
2018-May-14 02:30N 57°06' E 011°37'714.6
2018-May-14 02:00N 57°13' E 011°31'714.5
2018-May-14 01:30N 57°20' E 011°27'714.7
2018-May-14 01:00N 57°26' E 011°23'714.8
2018-May-14 00:30N 57°34' E 011°20'714.5
2018-May-14 00:00N 57°41' E 011°17'612.8
2018-May-13 23:30N 57°47' E 011°12'612.3
2018-May-13 23:00N 57°52' E 011°08'  

Dump ship's entire track history